Time;durP1;ratioP1;P1;durP2;ratioP2;P2;SDS_P1;SDS_P2;PMS_P1;PMS_P2;Temp;Humidity;BMP_temperature;BMP_pressure;BME280_temperature;BME280_humidity;BME280_pressure;Samples;Min_cycle;Max_cycle;Signal;HPM_P1;HPM_P2
2022/12/05 00:02:09;;;;;;;23.50;14.03;;;6.90;99.90;;;;;;5052016;28;20237;-64
2022/12/05 00:04:36;;;;;;;23.50;14.13;;;6.90;99.90;;;;;;5051592;28;20211;-63
2022/12/05 00:07:03;;;;;;;19.30;12.80;;;7.00;99.90;;;;;;5051847;28;20210;-65
2022/12/05 00:09:30;;;;;;;18.30;11.93;;;7.00;99.90;;;;;;5051681;28;20757;-63
2022/12/05 00:11:56;;;;;;;19.60;12.20;;;7.00;99.90;;;;;;5051764;28;20221;-63
2022/12/05 00:14:23;;;;;;;19.17;11.70;;;7.00;99.90;;;;;;5051479;28;20692;-64
2022/12/05 00:16:50;;;;;;;19.50;13.03;;;7.00;99.90;;;;;;5051457;28;20598;-64
2022/12/05 00:19:18;;;;;;;17.20;12.10;;;6.80;99.90;;;;;;5051691;28;20224;-65
2022/12/05 00:21:45;;;;;;;18.03;11.67;;;6.70;99.90;;;;;;5051601;28;20210;-63
2022/12/05 00:24:14;;;;;;;18.77;11.57;;;6.70;99.90;;;;;;5051361;28;20579;-64
2022/12/05 00:26:41;;;;;;;18.03;11.23;;;6.60;99.90;;;;;;5051829;28;20206;-63
2022/12/05 00:29:07;;;;;;;18.17;11.10;;;6.50;99.90;;;;;;5051472;28;20236;-63
2022/12/05 00:31:34;;;;;;;17.27;11.20;;;6.50;99.90;;;;;;5051676;28;20213;-63
2022/12/05 00:34:02;;;;;;;17.67;10.93;;;6.50;99.90;;;;;;5051773;28;20209;-64
2022/12/05 00:36:33;;;;;;;19.93;11.43;;;6.50;99.90;;;;;;5051458;28;20612;-63
2022/12/05 00:39:02;;;;;;;17.33;10.77;;;6.50;99.90;;;;;;5052169;28;20248;-63
2022/12/05 00:41:29;;;;;;;16.13;10.60;;;6.50;99.90;;;;;;5051852;28;20213;-63
2022/12/05 00:43:58;;;;;;;17.17;10.80;;;6.60;99.90;;;;;;5052415;28;20206;-63
2022/12/05 00:46:26;;;;;;;16.23;10.50;;;6.60;99.90;;;;;;5051191;28;20673;-63
2022/12/05 00:48:53;;;;;;;19.80;11.70;;;6.60;99.90;;;;;;5051444;28;20236;-64
2022/12/05 00:51:22;;;;;;;19.47;11.23;;;6.60;99.90;;;;;;5051714;28;20205;-64
2022/12/05 00:53:50;;;;;;;17.97;11.53;;;6.60;99.90;;;;;;5051605;28;20237;-63
2022/12/05 00:56:18;;;;;;;17.73;10.80;;;6.70;99.90;;;;;;5050960;28;20210;-62
2022/12/05 00:58:46;;;;;;;17.37;10.93;;;6.70;99.90;;;;;;5051901;28;20701;-64
2022/12/05 01:01:15;;;;;;;17.63;10.37;;;6.60;99.90;;;;;;5051345;28;20206;-63
2022/12/05 01:03:42;;;;;;;16.10;10.50;;;6.60;99.90;;;;;;5051517;28;20212;-62
2022/12/05 01:06:10;;;;;;;17.17;10.90;;;6.60;99.90;;;;;;5050803;28;20209;-64
2022/12/05 01:08:37;;;;;;;18.97;11.20;;;6.60;99.90;;;;;;5051297;28;20737;-63
2022/12/05 01:11:07;;;;;;;18.43;10.93;;;6.70;99.90;;;;;;5051286;28;20206;-63
2022/12/05 01:13:34;;;;;;;16.27;10.43;;;6.60;99.90;;;;;;5054583;28;20205;-63
2022/12/05 01:16:01;;;;;;;17.90;11.00;;;6.60;99.90;;;;;;5054297;28;20209;-64
2022/12/05 01:18:28;;;;;;;17.77;10.63;;;6.60;99.90;;;;;;5054954;28;20233;-63
2022/12/05 01:20:56;;;;;;;16.93;10.30;;;6.60;99.90;;;;;;5054767;28;20213;-63
2022/12/05 01:23:23;;;;;;;16.57;10.37;;;6.60;99.90;;;;;;5055140;28;20213;-62
2022/12/05 01:25:52;;;;;;;16.37;11.20;;;6.70;99.90;;;;;;5054221;28;20688;-63
2022/12/05 01:28:20;;;;;;;17.00;10.87;;;6.60;99.90;;;;;;5054309;28;20209;-63
2022/12/05 01:30:49;;;;;;;16.60;11.17;;;6.60;99.90;;;;;;5070466;22;20232;-57
2022/12/05 01:33:17;;;;;;;17.53;10.60;;;6.60;99.90;;;;;;5049471;28;20567;-57
2022/12/05 01:35:44;;;;;;;14.97;10.10;;;6.50;99.90;;;;;;5055428;28;20206;-58
2022/12/05 01:38:12;;;;;;;16.83;10.70;;;6.40;99.90;;;;;;5055460;28;20205;-57
2022/12/05 01:40:40;;;;;;;17.47;10.73;;;6.50;99.90;;;;;;5055497;28;20268;-57
2022/12/05 01:43:14;;;;;;;15.63;10.37;;;6.60;99.90;;;;;;5055220;28;20260;-57
2022/12/05 01:45:44;;;;;;;15.47;10.13;;;6.60;99.90;;;;;;5055111;28;20212;-57
2022/12/05 01:48:16;;;;;;;15.03;10.27;;;6.60;99.90;;;;;;5055217;28;20296;-57
2022/12/05 01:50:44;;;;;;;15.50;10.57;;;6.50;99.90;;;;;;5054923;28;20233;-57
2022/12/05 01:53:11;;;;;;;15.50;9.87;;;6.50;99.90;;;;;;5055082;28;20633;-58
2022/12/05 01:55:38;;;;;;;15.20;10.23;;;6.70;99.90;;;;;;5054623;28;20255;-56
2022/12/05 01:58:08;;;;;;;15.17;9.70;;;6.50;99.90;;;;;;5054794;28;20205;-58
2022/12/05 02:00:35;;;;;;;15.10;10.27;;;6.40;99.90;;;;;;5054740;28;20667;-58
2022/12/05 02:03:07;;;;;;;14.10;9.33;;;6.30;99.90;;;;;;5054485;28;20238;-58
2022/12/05 02:05:37;;;;;;;14.20;9.70;;;6.30;99.90;;;;;;5053895;28;20630;-58
2022/12/05 02:08:07;;;;;;;14.20;9.80;;;6.40;99.90;;;;;;5054557;28;20296;-58
2022/12/05 02:10:37;;;;;;;17.23;10.67;;;6.40;99.90;;;;;;5054108;28;20287;-58
2022/12/05 02:13:16;;;;;;;13.63;9.63;;;6.50;99.90;;;;;;5054732;28;20684;-58
2022/12/05 02:15:47;;;;;;;15.00;9.73;;;6.50;99.90;;;;;;5054267;28;20587;-57
2022/12/05 02:18:31;;;;;;;14.17;9.53;;;6.50;99.90;;;;;;5053777;28;20691;-57
2022/12/05 02:21:14;;;;;;;13.37;9.57;;;6.50;99.90;;;;;;5054257;28;20221;-58
2022/12/05 02:24:02;;;;;;;13.73;9.47;;;6.50;99.90;;;;;;5053653;28;20273;-58
2022/12/05 02:26:48;;;;;;;15.20;9.70;;;6.50;99.90;;;;;;5054482;28;20297;-58
2022/12/05 02:29:51;;;;;;;13.43;9.50;;;6.50;99.90;;;;;;5054407;28;20233;-58
2022/12/05 02:32:29;;;;;;;14.77;9.77;;;6.40;99.90;;;;;;5055670;28;20339;-57
2022/12/05 02:35:03;;;;;;;13.17;9.40;;;6.40;99.90;;;;;;5054508;28;20237;-57
2022/12/05 02:37:38;;;;;;;12.70;9.07;;;6.30;99.90;;;;;;5054194;28;20204;-57
2022/12/05 02:40:14;;;;;;;14.83;9.97;;;6.30;99.90;;;;;;5054055;28;20225;-58
2022/12/05 02:42:45;;;;;;;14.20;9.37;;;6.40;99.90;;;;;;5053857;28;20212;-57
2022/12/05 02:45:16;;;;;;;12.57;8.90;;;6.30;99.90;;;;;;5053386;28;20228;-57
2022/12/05 02:47:47;;;;;;;14.40;10.20;;;6.30;99.90;;;;;;5053509;28;20557;-57
2022/12/05 02:50:20;;;;;;;15.17;10.00;;;6.30;99.90;;;;;;5053435;28;20244;-57
2022/12/05 02:52:49;;;;;;;13.53;9.07;;;6.30;99.90;;;;;;5053703;28;20205;-57
2022/12/05 02:55:18;;;;;;;13.07;9.17;;;6.40;99.90;;;;;;5052989;28;20201;-58
2022/12/05 02:57:50;;;;;;;11.70;8.60;;;6.40;99.90;;;;;;5053285;28;20206;-57
2022/12/05 03:00:17;;;;;;;11.90;8.60;;;6.60;99.90;;;;;;5053406;28;20689;-57
2022/12/05 03:02:47;;;;;;;13.40;8.93;;;6.60;99.90;;;;;;5053524;28;20264;-57
2022/12/05 03:05:21;;;;;;;12.27;8.77;;;6.70;99.90;;;;;;5052988;28;20228;-57
2022/12/05 03:07:49;;;;;;;11.93;8.77;;;6.70;99.90;;;;;;5052908;28;20212;-57
2022/12/05 03:10:21;;;;;;;11.70;8.70;;;6.70;99.90;;;;;;5052721;28;20681;-58
2022/12/05 03:12:54;;;;;;;11.77;8.10;;;6.70;99.90;;;;;;5053515;28;20201;-57
2022/12/05 03:15:24;;;;;;;12.33;7.77;;;6.70;99.90;;;;;;5053339;28;20267;-57
2022/12/05 03:17:57;;;;;;;13.00;9.00;;;6.80;99.90;;;;;;5052996;28;20206;-57
2022/12/05 03:20:29;;;;;;;12.87;8.80;;;6.80;99.90;;;;;;5052696;28;20302;-58
2022/12/05 03:22:59;;;;;;;12.53;8.17;;;6.80;99.90;;;;;;5052772;28;20727;-57
2022/12/05 03:25:35;;;;;;;12.70;8.80;;;6.70;99.90;;;;;;5052193;28;20723;-57
2022/12/05 03:28:08;;;;;;;12.00;8.43;;;6.60;99.90;;;;;;5053018;28;20569;-58
2022/12/05 03:30:38;;;;;;;11.63;8.20;;;6.70;99.90;;;;;;5052436;28;20225;-57
2022/12/05 03:33:13;;;;;;;12.47;8.27;;;6.70;99.90;;;;;;5053088;28;20228;-57
2022/12/05 03:35:45;;;;;;;13.30;8.87;;;6.80;99.90;;;;;;5051888;28;20205;-57
2022/12/05 03:38:14;;;;;;;12.70;8.50;;;6.70;99.90;;;;;;5052448;28;20206;-57
2022/12/05 03:40:47;;;;;;;15.57;9.57;;;6.80;99.90;;;;;;5052759;28;20225;-57
2022/12/05 03:43:22;;;;;;;14.70;9.40;;;6.80;99.90;;;;;;5052394;28;20374;-57
2022/12/05 03:45:53;;;;;;;12.80;9.03;;;6.70;99.90;;;;;;5051841;28;20206;-57
2022/12/05 03:48:30;;;;;;;12.93;8.47;;;6.70;99.90;;;;;;5052699;28;20237;-57
2022/12/05 03:50:58;;;;;;;12.07;8.37;;;6.70;99.90;;;;;;5052201;28;20229;-57
2022/12/05 03:53:28;;;;;;;13.37;8.27;;;6.70;99.90;;;;;;5052415;28;20216;-57
2022/12/05 03:56:00;;;;;;;12.50;7.97;;;6.70;99.90;;;;;;5051966;28;20205;-57
2022/12/05 03:58:30;;;;;;;11.40;7.97;;;6.80;99.90;;;;;;5052291;28;20206;-57
2022/12/05 04:01:00;;;;;;;12.47;8.03;;;6.70;99.90;;;;;;5052410;28;20275;-57
2022/12/05 04:03:38;;;;;;;11.63;8.60;;;6.70;99.90;;;;;;5052399;28;20288;-58
2022/12/05 04:06:10;;;;;;;11.10;7.60;;;6.70;99.90;;;;;;5051619;28;20201;-57
2022/12/05 04:08:40;;;;;;;13.50;8.80;;;6.70;99.90;;;;;;5052071;28;20211;-57
2022/12/05 04:11:13;;;;;;;12.90;8.93;;;6.70;99.90;;;;;;5051904;28;20317;-57
2022/12/05 04:13:45;;;;;;;14.00;8.30;;;6.60;99.90;;;;;;5052141;28;20205;-58
2022/12/05 04:19:08;;;;;;;13.63;8.27;;;6.60;99.90;;;;;;5052190;28;20283;-57
2022/12/05 04:21:39;;;;;;;13.30;8.90;;;6.60;99.90;;;;;;5052432;28;20208;-57
2022/12/05 04:27:06;;;;;;;13.60;8.97;;;6.70;99.90;;;;;;5052144;28;20695;-58
2022/12/05 04:29:37;;;;;;;13.07;9.17;;;6.80;99.90;;;;;;5052006;28;20233;-58
2022/12/05 04:32:10;;;;;;;15.33;10.17;;;6.80;99.90;;;;;;5052185;28;20202;-58
2022/12/05 04:34:39;;;;;;;17.53;12.00;;;6.80;99.90;;;;;;5051540;28;20227;-58
2022/12/05 04:37:12;;;;;;;11.37;8.00;;;6.90;99.90;;;;;;5052051;28;20292;-58
2022/12/05 04:39:45;;;;;;;13.77;9.00;;;6.90;99.90;;;;;;5051845;28;20580;-58
2022/12/05 04:42:17;;;;;;;11.10;8.10;;;6.80;99.90;;;;;;5051883;28;20275;-57
2022/12/05 04:44:48;;;;;;;15.70;8.47;;;6.80;99.90;;;;;;5051390;28;20568;-57
2022/12/05 04:47:18;;;;;;;14.10;8.80;;;6.80;99.90;;;;;;5053377;28;20291;-57
2022/12/05 04:49:47;;;;;;;13.30;9.10;;;6.80;99.90;;;;;;5055514;28;20229;-58
2022/12/05 04:52:15;;;;;;;12.07;8.73;;;6.80;99.90;;;;;;5055640;28;20211;-57
2022/12/05 04:54:46;;;;;;;13.07;8.93;;;6.80;99.90;;;;;;5055312;28;20298;-57
2022/12/05 04:57:19;;;;;;;15.93;9.93;;;6.90;99.90;;;;;;5055881;28;20288;-57
2022/12/05 04:59:46;;;;;;;25.47;15.57;;;6.90;99.90;;;;;;5055907;28;20245;-57
2022/12/05 05:02:17;;;;;;;15.87;10.20;;;7.00;99.90;;;;;;5055996;28;20237;-58
2022/12/05 05:04:49;;;;;;;14.53;9.43;;;7.10;99.90;;;;;;5055447;28;20220;-57
2022/12/05 05:07:18;;;;;;;11.80;8.27;;;7.00;99.90;;;;;;5055898;28;20210;-57
2022/12/05 05:09:45;;;;;;;12.00;8.73;;;7.00;99.90;;;;;;5055956;28;20260;-57
2022/12/05 05:12:12;;;;;;;16.10;9.60;;;7.00;99.90;;;;;;5055874;28;20578;-58
2022/12/05 05:14:39;;;;;;;11.63;8.30;;;7.00;99.90;;;;;;5055771;28;20301;-57
2022/12/05 05:17:06;;;;;;;14.83;9.07;;;6.90;99.90;;;;;;5056258;28;20693;-57
2022/12/05 05:19:33;;;;;;;15.30;8.67;;;6.90;99.90;;;;;;5056754;28;20316;-57
2022/12/05 05:22:01;;;;;;;14.50;8.90;;;6.90;99.90;;;;;;5056819;28;20210;-57
2022/12/05 05:24:28;;;;;;;13.23;8.77;;;6.80;99.90;;;;;;5057031;28;20228;-57
2022/12/05 05:26:55;;;;;;;11.90;8.60;;;6.80;99.90;;;;;;5055909;28;20205;-57
2022/12/05 05:29:22;;;;;;;16.30;9.37;;;6.60;99.90;;;;;;5056057;28;20312;-57
2022/12/05 05:31:49;;;;;;;14.60;9.43;;;6.50;99.90;;;;;;5056030;28;20681;-57
2022/12/05 05:34:16;;;;;;;14.03;9.43;;;6.50;99.90;;;;;;5055344;28;20202;-57
2022/12/05 05:36:43;;;;;;;12.60;9.13;;;6.50;99.90;;;;;;5055177;28;20213;-59
2022/12/05 05:39:15;;;;;;;12.10;8.77;;;6.50;99.90;;;;;;5056489;28;20233;-57
2022/12/05 05:41:43;;;;;;;14.70;9.73;;;6.50;99.90;;;;;;5056707;28;20224;-58
2022/12/05 05:44:10;;;;;;;12.87;8.93;;;6.50;99.90;;;;;;5056567;28;20213;-58
2022/12/05 05:46:38;;;;;;;18.70;10.93;;;6.50;99.90;;;;;;5055352;28;20201;-58
2022/12/05 05:49:05;;;;;;;20.03;12.13;;;6.50;99.90;;;;;;5056021;28;20287;-58
2022/12/05 05:51:32;;;;;;;20.33;14.03;;;6.50;99.90;;;;;;5055098;28;20645;-58
2022/12/05 05:54:00;;;;;;;25.43;16.27;;;6.70;99.90;;;;;;5055480;28;20219;-58
2022/12/05 05:56:29;;;;;;;16.53;11.00;;;6.70;99.90;;;;;;5054549;28;20261;-58
2022/12/05 05:58:57;;;;;;;13.90;9.37;;;6.80;99.90;;;;;;5054902;28;20233;-58
2022/12/05 06:01:24;;;;;;;14.10;9.27;;;6.90;99.90;;;;;;5055294;28;20202;-58
2022/12/05 06:03:51;;;;;;;15.97;10.87;;;7.00;99.90;;;;;;5055466;28;20256;-58
2022/12/05 06:06:19;;;;;;;23.47;14.83;;;7.00;99.90;;;;;;5054870;28;20289;-57
2022/12/05 06:08:47;;;;;;;16.33;10.60;;;7.10;99.90;;;;;;5054827;28;20206;-58
2022/12/05 06:11:16;;;;;;;15.47;9.83;;;7.20;99.90;;;;;;5054592;28;20685;-58
2022/12/05 06:13:44;;;;;;;15.93;10.67;;;7.30;99.90;;;;;;5055394;28;20214;-58
2022/12/05 06:16:13;;;;;;;15.00;10.57;;;7.30;99.90;;;;;;5054824;28;20205;-58
2022/12/05 06:18:40;;;;;;;15.50;9.77;;;7.40;99.90;;;;;;5055270;28;20240;-58
2022/12/05 06:21:08;;;;;;;10.83;8.10;;;7.40;99.90;;;;;;5055794;28;20298;-57
2022/12/05 06:23:35;;;;;;;12.27;8.93;;;7.30;99.90;;;;;;5054761;28;20635;-58
2022/12/05 06:26:03;;;;;;;14.20;9.87;;;7.40;99.90;;;;;;5053604;28;20577;-56
2022/12/05 06:28:30;;;;;;;13.60;9.73;;;7.40;99.90;;;;;;5054016;28;20673;-57
2022/12/05 06:30:58;;;;;;;15.40;10.03;;;7.40;99.90;;;;;;5053776;28;20230;-57
2022/12/05 06:33:25;;;;;;;14.93;9.17;;;7.30;99.90;;;;;;5054202;28;20296;-58
2022/12/05 06:36:02;;;;;;;13.83;9.43;;;7.30;99.90;;;;;;5054076;28;20209;-57
2022/12/05 06:38:29;;;;;;;13.60;8.90;;;7.20;99.90;;;;;;5054341;28;20209;-58
2022/12/05 06:40:56;;;;;;;14.73;9.23;;;7.10;99.90;;;;;;5054164;28;20257;-57
2022/12/05 06:43:23;;;;;;;14.47;9.47;;;7.00;99.90;;;;;;5053853;28;20645;-57
2022/12/05 06:45:51;;;;;;;13.30;9.20;;;6.90;99.90;;;;;;5053295;28;20320;-57
2022/12/05 06:48:19;;;;;;;14.97;9.20;;;6.80;99.90;;;;;;5053434;28;20697;-57
2022/12/05 06:50:50;;;;;;;12.33;8.93;;;6.70;99.90;;;;;;5053297;28;20236;-57
2022/12/05 06:53:17;;;;;;;17.27;11.03;;;6.80;99.90;;;;;;5053535;28;20209;-57
2022/12/05 06:55:44;;;;;;;14.37;9.73;;;6.90;99.90;;;;;;5052870;28;20724;-57
2022/12/05 06:58:11;;;;;;;14.20;9.63;;;7.10;99.90;;;;;;5053487;28;20201;-57
2022/12/05 07:03:24;;;;;;;17.93;12.13;;;7.30;99.90;;;;;;5053377;28;20201;-58
2022/12/05 07:05:51;;;;;;;14.90;10.83;;;7.40;99.90;;;;;;5052636;28;20263;-57
2022/12/05 07:08:18;;;;;;;16.53;9.47;;;7.50;99.90;;;;;;5053540;28;20202;-57
2022/12/05 07:10:52;;;;;;;17.87;11.90;;;7.50;99.90;;;;;;5052128;28;20264;-57
2022/12/05 07:13:19;;;;;;;13.17;9.00;;;7.60;99.90;;;;;;5053054;28;20272;-57
2022/12/05 07:15:47;;;;;;;15.63;8.70;;;7.60;99.90;;;;;;5052497;28;20205;-57
2022/12/05 07:18:15;;;;;;;15.40;9.77;;;7.60;99.90;;;;;;5052912;28;20641;-57
2022/12/05 07:20:44;;;;;;;13.77;9.53;;;7.70;99.90;;;;;;5052699;28;20234;-58
2022/12/05 07:23:11;;;;;;;17.17;9.53;;;7.70;99.90;;;;;;5053069;28;20209;-58
2022/12/05 07:25:40;;;;;;;15.07;9.50;;;7.70;99.90;;;;;;5052484;28;20248;-57
2022/12/05 07:28:08;;;;;;;12.27;8.60;;;7.70;99.90;;;;;;5053220;28;20280;-57
2022/12/05 07:30:35;;;;;;;16.33;9.20;;;7.80;99.90;;;;;;5052926;28;20581;-58
2022/12/05 07:33:03;;;;;;;13.00;9.00;;;7.80;99.90;;;;;;5053108;28;20205;-58
2022/12/05 07:35:30;;;;;;;13.30;8.47;;;7.90;99.90;;;;;;5052669;28;20206;-58
2022/12/05 07:37:58;;;;;;;14.93;9.47;;;7.90;99.90;;;;;;5052631;28;20647;-58
2022/12/05 07:40:25;;;;;;;11.73;8.43;;;7.90;99.90;;;;;;5052875;28;20256;-58
2022/12/05 07:42:53;;;;;;;11.23;8.00;;;7.90;99.90;;;;;;5052937;28;20205;-58
2022/12/05 07:45:20;;;;;;;13.20;8.17;;;7.90;99.90;;;;;;5052807;28;20391;-58
2022/12/05 07:47:47;;;;;;;14.23;9.57;;;7.90;99.90;;;;;;5052724;28;20572;-58
2022/12/05 07:50:14;;;;;;;11.73;8.23;;;7.80;99.90;;;;;;5052861;28;20221;-58
2022/12/05 07:52:41;;;;;;;14.27;9.07;;;7.70;99.90;;;;;;5053210;28;20213;-58
2022/12/05 07:55:10;;;;;;;12.50;8.90;;;7.50;99.90;;;;;;5052954;28;20263;-58
2022/12/05 07:57:37;;;;;;;14.40;8.97;;;7.40;99.90;;;;;;5053105;28;20206;-58
2022/12/05 08:00:05;;;;;;;12.90;9.00;;;7.30;99.90;;;;;;5052583;28;20234;-56
2022/12/05 08:02:32;;;;;;;13.93;9.33;;;7.00;99.90;;;;;;5052893;28;20631;-57
2022/12/05 08:04:59;;;;;;;12.10;8.90;;;6.90;99.90;;;;;;5052655;28;20297;-57
2022/12/05 08:07:26;;;;;;;12.60;8.77;;;6.80;99.90;;;;;;5053069;28;20228;-56
2022/12/05 08:09:53;;;;;;;12.57;9.17;;;6.80;99.90;;;;;;5052951;28;20253;-57
2022/12/05 08:12:22;;;;;;;14.07;8.97;;;6.70;99.90;;;;;;5053506;28;20221;-57
2022/12/05 08:14:49;;;;;;;12.00;8.50;;;6.70;99.90;;;;;;5053394;28;20210;-57
2022/12/05 08:17:16;;;;;;;12.33;8.60;;;6.80;99.90;;;;;;5053059;28;20216;-57
2022/12/05 08:19:43;;;;;;;12.13;8.60;;;6.80;99.90;;;;;;5052667;28;20222;-57
2022/12/05 08:22:10;;;;;;;12.40;8.80;;;6.80;99.90;;;;;;5056041;28;20209;-57
2022/12/05 08:24:38;;;;;;;12.33;7.97;;;6.80;99.90;;;;;;5056576;28;20205;-57
2022/12/05 08:27:05;;;;;;;13.13;8.63;;;6.70;99.90;;;;;;5056041;28;20212;-57
2022/12/05 08:29:33;;;;;;;12.60;8.53;;;6.70;99.90;;;;;;5056538;28;20240;-57
2022/12/05 08:32:00;;;;;;;11.93;8.33;;;6.60;99.90;;;;;;5056413;28;20226;-57
2022/12/05 08:34:27;;;;;;;17.30;8.67;;;6.50;99.90;;;;;;5056320;28;20289;-57
2022/12/05 08:36:54;;;;;;;12.37;8.50;;;6.50;99.90;;;;;;5055923;28;20212;-57
2022/12/05 08:39:21;;;;;;;13.93;8.73;;;6.50;99.90;;;;;;5055877;28;20279;-57
2022/12/05 08:41:48;;;;;;;13.10;8.97;;;6.60;99.90;;;;;;5055523;28;20205;-57
2022/12/05 08:44:15;;;;;;;13.53;8.90;;;6.70;99.90;;;;;;5055330;28;20569;-57
2022/12/05 08:46:45;;;;;;;14.60;9.37;;;6.90;99.90;;;;;;5055255;28;20213;-57
2022/12/05 08:49:13;;;;;;;13.60;8.97;;;7.10;99.90;;;;;;5056056;28;20660;-57
2022/12/05 08:51:40;;;;;;;13.63;8.50;;;7.30;99.90;;;;;;5055651;28;20229;-57
2022/12/05 08:54:07;;;;;;;13.33;8.40;;;7.50;99.90;;;;;;5055837;28;20605;-57
2022/12/05 08:56:37;;;;;;;11.57;7.50;;;7.70;99.90;;;;;;5055146;28;20205;-57
2022/12/05 08:59:04;;;;;;;11.20;7.80;;;7.90;99.90;;;;;;5055577;28;20260;-57
2022/12/05 09:01:31;;;;;;;13.27;8.13;;;8.10;99.90;;;;;;5055137;28;20197;-58
2022/12/05 09:04:01;;;;;;;10.80;7.37;;;8.20;99.90;;;;;;5055250;28;20240;-57
2022/12/05 09:06:28;;;;;;;10.47;7.60;;;8.30;99.90;;;;;;5054925;28;20201;-57
2022/12/05 09:08:56;;;;;;;15.57;8.17;;;8.40;99.90;;;;;;5054902;28;20213;-57
2022/12/05 09:11:26;;;;;;;12.43;7.30;;;8.60;99.90;;;;;;5055344;28;20787;-57
2022/12/05 09:13:55;;;;;;;12.73;7.27;;;8.70;99.90;;;;;;5055309;28;20236;-57
2022/12/05 09:16:24;;;;;;;9.37;6.67;;;8.80;99.90;;;;;;5054755;28;20696;-57
2022/12/05 09:18:52;;;;;;;7.87;6.13;;;9.00;99.90;;;;;;5054887;28;20209;-58
2022/12/05 09:21:22;;;;;;;8.47;6.43;;;9.10;99.90;;;;;;5055220;28;20283;-58
2022/12/05 09:23:50;;;;;;;9.00;6.60;;;9.20;99.90;;;;;;5055096;28;20676;-58
2022/12/05 09:26:19;;;;;;;7.47;6.00;;;9.30;99.90;;;;;;5054284;28;20210;-58
2022/12/05 09:28:47;;;;;;;8.10;6.67;;;9.40;99.90;;;;;;5055305;28;20205;-58
2022/12/05 09:31:16;;;;;;;9.77;6.83;;;9.50;99.90;;;;;;5054678;28;20230;-58
2022/12/05 09:33:43;;;;;;;8.60;6.00;;;9.50;99.90;;;;;;5054018;28;20217;-58
2022/12/05 09:36:14;;;;;;;8.30;6.43;;;9.40;99.90;;;;;;5054421;28;20217;-58
2022/12/05 09:38:42;;;;;;;8.97;6.17;;;9.50;99.90;;;;;;5054920;28;20213;-58
2022/12/05 09:42:03;;;;;;;9.20;6.50;;;9.50;99.90;;;;;;5054632;28;20657;-58
2022/12/05 09:44:21;;;;;;;8.70;6.30;;;9.50;99.90;;;;;;5054541;28;20284;-57
2022/12/05 09:46:55;;;;;;;7.33;5.80;;;9.60;99.90;;;;;;5054386;28;20233;-57
2022/12/05 09:49:24;;;;;;;8.17;6.23;;;9.60;99.90;;;;;;5054932;28;20597;-57
2022/12/05 09:51:52;;;;;;;8.57;6.50;;;9.60;99.90;;;;;;5054749;28;20222;-57
2022/12/05 09:54:21;;;;;;;8.23;6.00;;;9.60;99.90;;;;;;5054662;28;20288;-57
2022/12/05 09:56:50;;;;;;;7.27;5.87;;;9.70;99.90;;;;;;5054138;28;20300;-58
2022/12/05 09:59:19;;;;;;;18.80;12.30;;;9.80;99.90;;;;;;5054692;28;20293;-58
2022/12/05 10:01:55;;;;;;;8.67;6.77;;;9.80;99.90;;;;;;5054480;28;20296;-58
2022/12/05 10:04:43;;;;;;;10.13;6.90;;;9.80;99.90;;;;;;5054634;28;20787;-58
2022/12/05 10:07:17;;;;;;;9.00;6.13;;;9.80;99.90;;;;;;5053757;28;20300;-58
2022/12/05 10:09:54;;;;;;;9.23;6.93;;;9.80;99.90;;;;;;5054267;28;20320;-58
2022/12/05 10:12:38;;;;;;;7.57;5.60;;;9.90;99.90;;;;;;5054366;28;20225;-59
2022/12/05 10:15:14;;;;;;;6.67;5.30;;;9.90;99.90;;;;;;5053699;28;20241;-59
2022/12/05 10:17:45;;;;;;;10.57;6.23;;;9.90;99.90;;;;;;5054222;28;20208;-59
2022/12/05 10:20:15;;;;;;;7.77;5.93;;;9.90;99.90;;;;;;5055399;28;20230;-59
2022/12/05 10:22:47;;;;;;;7.30;5.23;;;9.90;99.90;;;;;;5054815;28;20197;-59
2022/12/05 10:25:20;;;;;;;8.33;4.93;;;10.00;99.90;;;;;;5054188;28;20209;-59
2022/12/05 10:27:51;;;;;;;10.63;5.57;;;9.90;99.90;;;;;;5054233;28;20597;-58
2022/12/05 10:30:20;;;;;;;10.60;5.73;;;9.90;99.90;;;;;;5054461;28;20237;-58
2022/12/05 10:32:53;;;;;;;7.50;5.43;;;9.90;99.90;;;;;;5054029;28;20229;-59
2022/12/05 10:35:22;;;;;;;6.93;5.30;;;9.90;99.90;;;;;;5054217;28;20209;-58
2022/12/05 10:37:51;;;;;;;6.47;4.90;;;9.80;99.90;;;;;;5054099;28;20206;-59
2022/12/05 10:40:20;;;;;;;8.20;5.43;;;9.80;99.90;;;;;;5054233;28;20232;-59
2022/12/05 10:42:48;;;;;;;8.17;6.77;;;9.90;99.90;;;;;;5054344;28;20240;-59
2022/12/05 10:45:19;;;;;;;7.77;5.57;;;10.00;99.90;;;;;;5053213;28;20293;-60
2022/12/05 10:47:46;;;;;;;5.70;4.90;;;10.10;99.90;;;;;;5054974;28;20650;-59
2022/12/05 10:50:32;;;;;;;9.50;5.40;;;10.10;99.90;;;;;;5055137;28;20701;-59
2022/12/05 10:53:01;;;;;;;7.13;4.90;;;10.20;99.90;;;;;;5054159;28;20228;-59
2022/12/05 10:55:36;;;;;;;6.83;5.57;;;10.10;99.90;;;;;;5055415;28;20209;-59
2022/12/05 10:58:11;;;;;;;9.10;6.30;;;9.80;99.90;;;;;;5055530;28;20235;-59
2022/12/05 11:00:43;;;;;;;8.37;6.23;;;9.50;99.90;;;;;;5054843;28;20324;-59
2022/12/05 11:03:24;;;;;;;6.60;5.70;;;9.60;99.90;;;;;;5055359;28;20205;-60
2022/12/05 11:05:52;;;;;;;8.80;6.67;;;9.90;99.90;;;;;;5055215;28;20202;-58
2022/12/05 11:08:24;;;;;;;9.00;6.40;;;10.00;99.90;;;;;;5055635;28;20614;-60
2022/12/05 11:11:02;;;;;;;8.70;6.07;;;9.90;99.90;;;;;;5054955;28;20252;-59
2022/12/05 11:13:29;;;;;;;9.70;6.57;;;9.70;99.90;;;;;;5053607;28;20743;-59
2022/12/05 11:15:56;;;;;;;8.10;6.73;;;9.60;99.90;;;;;;5053345;28;20647;-59
2022/12/05 11:18:29;;;;;;;8.13;6.40;;;9.50;99.90;;;;;;5054252;28;20638;-59
2022/12/05 11:20:57;;;;;;;8.70;6.33;;;9.80;99.90;;;;;;5054351;28;20776;-58
2022/12/05 11:23:28;;;;;;;8.73;6.93;;;9.90;99.90;;;;;;5053777;28;20205;-58
2022/12/05 11:25:57;;;;;;;8.70;6.30;;;9.60;99.90;;;;;;5052738;28;20588;-59
2022/12/05 11:28:30;;;;;;;10.27;7.60;;;9.30;99.90;;;;;;5052900;28;20213;-58
2022/12/05 11:30:59;;;;;;;9.43;6.97;;;9.10;99.90;;;;;;5052622;28;20237;-59
2022/12/05 11:33:27;;;;;;;9.33;7.13;;;9.10;99.90;;;;;;5053174;28;20229;-59
2022/12/05 11:35:58;;;;;;;10.93;7.37;;;8.90;99.90;;;;;;5052528;28;20209;-58
2022/12/05 11:38:31;;;;;;;10.60;7.50;;;8.90;99.90;;;;;;5052959;28;20211;-58
2022/12/05 11:41:12;;;;;;;11.20;8.00;;;8.80;99.90;;;;;;5052711;28;20296;-59
2022/12/05 11:43:57;;;;;;;9.30;7.03;;;8.90;99.90;;;;;;5052941;28;20229;-58
2022/12/05 11:46:34;;;;;;;11.57;7.67;;;8.90;99.90;;;;;;5052369;28;20209;-59
2022/12/05 11:49:14;;;;;;;10.07;8.07;;;9.10;99.90;;;;;;5052810;28;20239;-58
2022/12/05 11:51:45;;;;;;;11.07;7.80;;;9.40;99.90;;;;;;5052587;28;20658;-58
2022/12/05 11:54:38;;;;;;;8.23;6.47;;;9.70;99.90;;;;;;5052725;28;20475;-58
2022/12/05 11:57:13;;;;;;;7.80;6.63;;;9.80;99.90;;;;;;5035116;28;20577;-58
2022/12/05 12:00:02;;;;;;;11.03;7.40;;;9.80;99.90;;;;;;5052649;28;20275;-58
2022/12/05 12:02:43;;;;;;;9.60;7.40;;;9.80;99.90;;;;;;5052726;28;20212;-59
2022/12/05 12:05:20;;;;;;;8.90;7.13;;;9.70;99.90;;;;;;5053011;28;20265;-59
2022/12/05 12:08:01;;;;;;;9.93;7.50;;;9.50;99.90;;;;;;5052927;28;20240;-59
2022/12/05 12:10:40;;;;;;;11.47;7.57;;;9.30;99.90;;;;;;5052604;28;20233;-59
2022/12/05 12:13:21;;;;;;;12.73;7.47;;;9.10;99.90;;;;;;5052410;28;20225;-59
2022/12/05 12:15:59;;;;;;;10.43;7.57;;;9.20;99.90;;;;;;5052088;28;20227;-59
2022/12/05 12:18:48;;;;;;;9.67;7.23;;;9.30;99.90;;;;;;5052612;28;20216;-59
2022/12/05 12:21:18;;;;;;;13.30;7.60;;;9.20;99.90;;;;;;5052598;28;20216;-59
2022/12/05 12:23:59;;;;;;;12.20;8.17;;;8.90;99.90;;;;;;5052291;28;20197;-59
2022/12/05 12:26:32;;;;;;;10.73;8.20;;;9.00;99.90;;;;;;5052575;28;20212;-59
2022/12/05 12:29:09;;;;;;;11.00;7.73;;;9.30;99.90;;;;;;5052027;28;20248;-59
2022/12/05 12:31:49;;;;;;;10.67;7.20;;;9.50;99.90;;;;;;5052348;28;20580;-59
2022/12/05 12:34:47;;;;;;;11.87;7.90;;;9.50;99.90;;;;;;5052501;28;20743;-59
2022/12/05 12:37:22;;;;;;;10.13;7.70;;;9.40;99.90;;;;;;5052678;28;20206;-64
2022/12/05 12:39:52;;;;;;;10.60;8.10;;;9.20;99.90;;;;;;5039498;28;20530;-58
2022/12/05 12:42:23;;;;;;;10.87;8.37;;;9.20;99.90;;;;;;5031592;28;20220;-58
2022/12/05 12:45:32;;;;;;;9.50;7.50;;;9.40;99.90;;;;;;5033407;28;20686;-58
2022/12/05 12:48:09;;;;;;;12.53;8.87;;;9.60;99.90;;;;;;5033320;28;20208;-59
2022/12/05 12:50:41;;;;;;;10.00;7.37;;;9.80;99.90;;;;;;5032248;28;20248;-59
2022/12/05 12:53:29;;;;;;;8.43;7.20;;;10.00;99.90;;;;;;5032116;28;20225;-59
2022/12/05 12:56:05;;;;;;;9.53;7.33;;;9.90;99.90;;;;;;5030859;28;20279;-60
2022/12/05 12:58:46;;;;;;;9.07;7.07;;;9.80;99.90;;;;;;5031256;28;20668;-59
2022/12/05 13:01:27;;;;;;;9.83;6.83;;;9.70;99.90;;;;;;5031026;28;20213;-58
2022/12/05 13:04:01;;;;;;;9.50;7.03;;;9.90;99.90;;;;;;5030619;28;20672;-58
2022/12/05 13:06:32;;;;;;;10.53;6.80;;;10.00;99.90;;;;;;5030596;28;20206;-58
2022/12/05 13:09:03;;;;;;;9.73;7.73;;;10.00;99.90;;;;;;5034230;28;20222;-58
2022/12/05 13:11:36;;;;;;;9.97;7.10;;;9.70;99.90;;;;;;5035806;28;20213;-58
2022/12/05 13:14:09;;;;;;;14.20;7.57;;;9.60;99.90;;;;;;5035150;28;20226;-58